KGED/GED METAR and TAF weather

Enter ICAO airport designator
Station Type Date Time Source
KGED METAR 2023/03/21 04:54 UTC NOAA

KGED 210454Z AUTO 00000KT 10SM CLR 00/M04 A3034 RMK AO2 SLP276 T00001039 401171044


Station Type Date Time Source
KGED Decoded METAR 2023/03/21 04:54 UTC NOAA

GEORGETOWN SUSSEX CO AIRPORT , DE, United States (KGED) 38-41N 075-22W 19M
Mar 21, 2023 - 12:54 AM EDT / 2023.03.21 0454 UTC
Wind: Calm:0
Visibility: 10 mile(s):0
Sky conditions: clear
Temperature: 32.0 F (0.0 C)
Dew Point: 25.0 F (-3.9 C)
Relative Humidity: 74%
Pressure (altimeter): 30.34 in. Hg (1027 hPa)
ob: KGED 210454Z AUTO 00000KT 10SM CLR 00/M04 A3034 RMK AO2 SLP276 T00001039 401171044
cycle: 5

Station Type Date Time Source
KGED TAF UTC NOAA

Error!

Example: see airport list